sensor_id;sensor_type;location;lat;lon;timestamp;pressure;altitude;pressure_sealevel;temperature;humidity
35419;BME280;21525;41.240;16.500;2023-12-29T00:01:59;102359.59;;;16.25;64.39
35419;BME280;21525;41.240;16.500;2023-12-29T00:04:26;102355.06;;;16.40;64.05
35419;BME280;21525;41.240;16.500;2023-12-29T00:06:51;102342.22;;;16.15;63.92
35419;BME280;21525;41.240;16.500;2023-12-29T00:09:17;102359.38;;;16.46;63.63
35419;BME280;21525;41.240;16.500;2023-12-29T00:11:51;102357.88;;;16.24;63.96
35419;BME280;21525;41.240;16.500;2023-12-29T00:14:17;102353.38;;;16.32;64.04
35419;BME280;21525;41.240;16.500;2023-12-29T00:16:43;102357.44;;;15.79;65.18
35419;BME280;21525;41.240;16.500;2023-12-29T00:19:11;102349.00;;;16.32;63.81
35419;BME280;21525;41.240;16.500;2023-12-29T00:21:37;102342.22;;;16.15;63.99
35419;BME280;21525;41.240;16.500;2023-12-29T00:24:04;102350.75;;;16.32;63.52
35419;BME280;21525;41.240;16.500;2023-12-29T00:26:29;102357.91;;;16.21;64.39
35419;BME280;21525;41.240;16.500;2023-12-29T00:28:56;102356.06;;;16.26;64.44
35419;BME280;21525;41.240;16.500;2023-12-29T00:31:23;102356.13;;;16.23;64.11
35419;BME280;21525;41.240;16.500;2023-12-29T00:33:50;102357.94;;;16.18;64.03
35419;BME280;21525;41.240;16.500;2023-12-29T00:36:19;102358.75;;;16.23;63.72
35419;BME280;21525;41.240;16.500;2023-12-29T00:38:45;102360.22;;;16.50;63.17
35419;BME280;21525;41.240;16.500;2023-12-29T00:41:11;102362.97;;;16.36;63.13
35419;BME280;21525;41.240;16.500;2023-12-29T00:43:37;102357.81;;;16.27;62.64
35419;BME280;21525;41.240;16.500;2023-12-29T00:46:04;102359.81;;;16.83;61.94
35419;BME280;21525;41.240;16.500;2023-12-29T00:48:30;102363.69;;;16.52;62.03
35419;BME280;21525;41.240;16.500;2023-12-29T00:50:56;102362.19;;;16.26;63.66
35419;BME280;21525;41.240;16.500;2023-12-29T00:53:22;102364.38;;;16.67;62.43
35419;BME280;21525;41.240;16.500;2023-12-29T00:55:48;102368.41;;;16.22;63.69
35419;BME280;21525;41.240;16.500;2023-12-29T00:58:14;102363.78;;;16.42;63.21
35419;BME280;21525;41.240;16.500;2023-12-29T01:00:39;102374.56;;;16.17;62.99
35419;BME280;21525;41.240;16.500;2023-12-29T01:03:05;102373.34;;;15.58;65.00
35419;BME280;21525;41.240;16.500;2023-12-29T01:05:31;102379.19;;;15.90;64.05
35419;BME280;21525;41.240;16.500;2023-12-29T01:07:57;102380.72;;;16.12;63.82
35419;BME280;21525;41.240;16.500;2023-12-29T01:10:23;102373.97;;;15.87;64.22
35419;BME280;21525;41.240;16.500;2023-12-29T01:12:49;102375.00;;;15.66;64.75
35419;BME280;21525;41.240;16.500;2023-12-29T01:15:15;102378.34;;;15.88;64.27
35419;BME280;21525;41.240;16.500;2023-12-29T01:17:41;102370.59;;;15.73;65.46
35419;BME280;21525;41.240;16.500;2023-12-29T01:20:07;102375.75;;;15.82;64.89
35419;BME280;21525;41.240;16.500;2023-12-29T01:22:33;102368.63;;;15.96;64.41
35419;BME280;21525;41.240;16.500;2023-12-29T01:24:59;102370.13;;;16.23;63.34
35419;BME280;21525;41.240;16.500;2023-12-29T01:27:26;102374.78;;;15.92;63.55
35419;BME280;21525;41.240;16.500;2023-12-29T01:29:51;102371.44;;;15.76;64.74
35419;BME280;21525;41.240;16.500;2023-12-29T01:32:19;102370.22;;;16.16;63.61
35419;BME280;21525;41.240;16.500;2023-12-29T01:34:44;102375.72;;;15.88;64.37
35419;BME280;21525;41.240;16.500;2023-12-29T01:37:10;102371.19;;;16.02;64.18
35419;BME280;21525;41.240;16.500;2023-12-29T01:39:36;102369.44;;;16.03;64.32
35419;BME280;21525;41.240;16.500;2023-12-29T01:42:02;102371.44;;;15.78;65.03
35419;BME280;21525;41.240;16.500;2023-12-29T01:44:28;102365.09;;;16.00;64.08
35419;BME280;21525;41.240;16.500;2023-12-29T01:46:56;102369.69;;;15.77;64.67
35419;BME280;21525;41.240;16.500;2023-12-29T01:49:22;102359.94;;;15.91;64.49
35419;BME280;21525;41.240;16.500;2023-12-29T01:51:54;102365.09;;;16.00;64.04
35419;BME280;21525;41.240;16.500;2023-12-29T01:54:21;102365.13;;;15.96;64.62
35419;BME280;21525;41.240;16.500;2023-12-29T01:56:50;102366.41;;;15.46;65.99
35419;BME280;21525;41.240;16.500;2023-12-29T01:59:17;102358.28;;;15.83;64.87
35419;BME280;21525;41.240;16.500;2023-12-29T02:01:44;102357.19;;;16.02;64.30
35419;BME280;21525;41.240;16.500;2023-12-29T02:04:12;102352.22;;;15.71;64.96
35419;BME280;21525;41.240;16.500;2023-12-29T02:06:39;102348.63;;;15.85;64.19
35419;BME280;21525;41.240;16.500;2023-12-29T02:09:05;102354.72;;;15.88;64.72
35419;BME280;21525;41.240;16.500;2023-12-29T02:11:31;102348.06;;;15.44;65.97
35419;BME280;21525;41.240;16.500;2023-12-29T02:13:59;102343.56;;;15.62;65.38
35419;BME280;21525;41.240;16.500;2023-12-29T02:17:01;102349.75;;;15.58;65.77
35419;BME280;21525;41.240;16.500;2023-12-29T02:19:43;102340.16;;;15.48;65.74
35419;BME280;21525;41.240;16.500;2023-12-29T02:22:11;102340.06;;;15.63;65.34
35419;BME280;21525;41.240;16.500;2023-12-29T02:24:38;102335.63;;;15.71;65.08
35419;BME280;21525;41.240;16.500;2023-12-29T02:27:29;102340.16;;;15.51;65.07
35419;BME280;21525;41.240;16.500;2023-12-29T02:32:36;102329.53;;;15.69;64.56
35419;BME280;21525;41.240;16.500;2023-12-29T02:35:05;102325.09;;;15.77;64.57
35419;BME280;21525;41.240;16.500;2023-12-29T02:37:35;102317.44;;;15.48;65.81
35419;BME280;21525;41.240;16.500;2023-12-29T02:40:02;102318.25;;;15.55;65.63
35419;BME280;21525;41.240;16.500;2023-12-29T02:42:28;102311.28;;;15.54;65.86
35419;BME280;21525;41.240;16.500;2023-12-29T02:44:54;102314.69;;;15.65;65.48
35419;BME280;21525;41.240;16.500;2023-12-29T02:47:20;102307.78;;;15.56;65.50
35419;BME280;21525;41.240;16.500;2023-12-29T02:49:47;102312.41;;;15.19;67.09
35419;BME280;21525;41.240;16.500;2023-12-29T02:52:14;102310.41;;;15.52;65.58
35419;BME280;21525;41.240;16.500;2023-12-29T02:54:41;102303.56;;;15.29;66.61
35419;BME280;21525;41.240;16.500;2023-12-29T02:57:07;102308.59;;;15.63;65.37
35419;BME280;21525;41.240;16.500;2023-12-29T02:59:34;102304.28;;;15.53;65.11
35419;BME280;21525;41.240;16.500;2023-12-29T03:01:59;102297.22;;;15.64;64.93
35419;BME280;21525;41.240;16.500;2023-12-29T03:04:27;102285.78;;;15.69;64.85
35419;BME280;21525;41.240;16.500;2023-12-29T03:06:53;102291.91;;;15.70;64.89
35419;BME280;21525;41.240;16.500;2023-12-29T03:09:19;102290.25;;;15.60;64.84
35419;BME280;21525;41.240;16.500;2023-12-29T03:11:46;102289.34;;;15.64;64.98
35419;BME280;21525;41.240;16.500;2023-12-29T03:14:11;102287.53;;;15.70;64.99
35419;BME280;21525;41.240;16.500;2023-12-29T03:16:37;102284.47;;;15.18;66.70
35419;BME280;21525;41.240;16.500;2023-12-29T03:19:03;102280.81;;;15.34;66.24
35419;BME280;21525;41.240;16.500;2023-12-29T03:21:28;102271.25;;;15.27;66.62
35419;BME280;21525;41.240;16.500;2023-12-29T03:23:54;102272.69;;;15.68;65.17
35419;BME280;21525;41.240;16.500;2023-12-29T03:26:20;102273.94;;;15.23;65.80
35419;BME280;21525;41.240;16.500;2023-12-29T03:28:46;102273.16;;;15.08;66.54
35419;BME280;21525;41.240;16.500;2023-12-29T03:31:11;102274.69;;;15.38;65.58
35419;BME280;21525;41.240;16.500;2023-12-29T03:33:38;102273.13;;;15.16;66.07
35419;BME280;21525;41.240;16.500;2023-12-29T03:36:05;102275.59;;;15.34;65.36
35419;BME280;21525;41.240;16.500;2023-12-29T03:38:33;102262.47;;;15.34;65.59
35419;BME280;21525;41.240;16.500;2023-12-29T03:41:00;102266.50;;;15.75;64.13
35419;BME280;21525;41.240;16.500;2023-12-29T03:43:26;102266.00;;;15.29;64.90
35419;BME280;21525;41.240;16.500;2023-12-29T03:45:53;102267.66;;;15.42;64.82
35419;BME280;21525;41.240;16.500;2023-12-29T03:48:19;102260.56;;;15.53;64.87
35419;BME280;21525;41.240;16.500;2023-12-29T03:50:45;102260.47;;;15.65;63.60
35419;BME280;21525;41.240;16.500;2023-12-29T03:53:11;102258.59;;;15.78;63.84
35419;BME280;21525;41.240;16.500;2023-12-29T03:55:36;102261.47;;;15.51;64.12
35419;BME280;21525;41.240;16.500;2023-12-29T03:58:03;102259.81;;;15.40;64.74
35419;BME280;21525;41.240;16.500;2023-12-29T04:00:29;102272.97;;;15.31;65.41
35419;BME280;21525;41.240;16.500;2023-12-29T04:02:54;102263.34;;;15.33;65.47
35419;BME280;21525;41.240;16.500;2023-12-29T04:05:20;102271.16;;;15.39;65.10
35419;BME280;21525;41.240;16.500;2023-12-29T04:07:46;102268.59;;;15.35;65.02
35419;BME280;21525;41.240;16.500;2023-12-29T04:10:12;102275.44;;;15.54;64.02
35419;BME280;21525;41.240;16.500;2023-12-29T04:12:37;102267.03;;;16.07;63.31
35419;BME280;21525;41.240;16.500;2023-12-29T04:15:04;102267.38;;;15.75;63.45
35419;BME280;21525;41.240;16.500;2023-12-29T04:17:30;102277.22;;;15.49;63.96
35419;BME280;21525;41.240;16.500;2023-12-29T04:19:56;102276.13;;;15.76;64.01
35419;BME280;21525;41.240;16.500;2023-12-29T04:22:22;102272.78;;;15.56;63.97
35419;BME280;21525;41.240;16.500;2023-12-29T04:24:48;102286.00;;;15.42;64.35
35419;BME280;21525;41.240;16.500;2023-12-29T04:27:15;102282.47;;;15.49;63.87
35419;BME280;21525;41.240;16.500;2023-12-29T04:29:41;102272.81;;;15.53;64.61
35419;BME280;21525;41.240;16.500;2023-12-29T04:32:06;102269.06;;;15.84;62.95
35419;BME280;21525;41.240;16.500;2023-12-29T04:34:32;102274.47;;;15.63;63.92
35419;BME280;21525;41.240;16.500;2023-12-29T04:36:58;102269.41;;;15.41;64.43
35419;BME280;21525;41.240;16.500;2023-12-29T04:39:25;102274.44;;;15.69;63.43
35419;BME280;21525;41.240;16.500;2023-12-29T04:41:51;102280.91;;;15.27;64.71
35419;BME280;21525;41.240;16.500;2023-12-29T04:44:17;102274.25;;;15.87;63.12
35419;BME280;21525;41.240;16.500;2023-12-29T04:46:42;102284.97;;;15.63;63.93
35419;BME280;21525;41.240;16.500;2023-12-29T04:49:08;102279.72;;;15.66;63.53
35419;BME280;21525;41.240;16.500;2023-12-29T04:51:34;102277.84;;;15.77;63.68
35419;BME280;21525;41.240;16.500;2023-12-29T04:54:00;102286.91;;;15.39;64.24
35419;BME280;21525;41.240;16.500;2023-12-29T04:56:26;102285.91;;;15.54;64.28
35419;BME280;21525;41.240;16.500;2023-12-29T04:58:51;102289.56;;;15.32;65.03
35419;BME280;21525;41.240;16.500;2023-12-29T05:01:17;102282.50;;;15.44;64.60
35419;BME280;21525;41.240;16.500;2023-12-29T05:03:43;102290.41;;;15.37;64.23
35419;BME280;21525;41.240;16.500;2023-12-29T05:06:09;102293.53;;;15.85;63.68
35419;BME280;21525;41.240;16.500;2023-12-29T05:08:34;102288.53;;;15.59;64.07
35419;BME280;21525;41.240;16.500;2023-12-29T05:11:00;102297.31;;;15.56;64.10
35419;BME280;21525;41.240;16.500;2023-12-29T05:13:26;102298.91;;;15.71;63.61
35419;BME280;21525;41.240;16.500;2023-12-29T05:15:52;102301.69;;;15.51;64.36
35419;BME280;21525;41.240;16.500;2023-12-29T05:18:17;102297.56;;;15.20;64.72
35419;BME280;21525;41.240;16.500;2023-12-29T05:20:43;102301.03;;;15.23;64.77
35419;BME280;21525;41.240;16.500;2023-12-29T05:23:09;102294.59;;;15.62;64.21
35419;BME280;21525;41.240;16.500;2023-12-29T05:25:35;102297.47;;;15.30;64.17
35419;BME280;21525;41.240;16.500;2023-12-29T05:28:01;102305.47;;;15.10;65.28
35419;BME280;21525;41.240;16.500;2023-12-29T05:30:26;102304.50;;;15.27;64.97
35419;BME280;21525;41.240;16.500;2023-12-29T05:32:53;102300.22;;;15.10;65.36
35419;BME280;21525;41.240;16.500;2023-12-29T05:35:19;102315.91;;;15.18;64.92
35419;BME280;21525;41.240;16.500;2023-12-29T05:37:44;102308.75;;;15.41;64.00
35419;BME280;21525;41.240;16.500;2023-12-29T05:40:10;102309.03;;;14.99;65.62
35419;BME280;21525;41.240;16.500;2023-12-29T05:42:36;102314.00;;;15.37;64.53
35419;BME280;21525;41.240;16.500;2023-12-29T05:45:02;102320.13;;;15.36;64.58
35419;BME280;21525;41.240;16.500;2023-12-29T05:47:30;102313.28;;;15.21;64.43
35419;BME280;21525;41.240;16.500;2023-12-29T05:49:56;102314.19;;;15.14;65.29
35419;BME280;21525;41.240;16.500;2023-12-29T05:52:22;102304.38;;;15.42;64.86
35419;BME280;21525;41.240;16.500;2023-12-29T05:54:48;102307.03;;;15.37;64.20
35419;BME280;21525;41.240;16.500;2023-12-29T05:57:14;102312.06;;;15.63;63.79
35419;BME280;21525;41.240;16.500;2023-12-29T05:59:39;102308.72;;;15.44;63.59
35419;BME280;21525;41.240;16.500;2023-12-29T06:02:05;102303.09;;;15.90;62.71
35419;BME280;21525;41.240;16.500;2023-12-29T06:04:31;102304.22;;;15.60;63.18
35419;BME280;21525;41.240;16.500;2023-12-29T06:06:57;102311.84;;;15.91;62.33
35419;BME280;21525;41.240;16.500;2023-12-29T06:09:22;102312.78;;;15.85;62.68
35419;BME280;21525;41.240;16.500;2023-12-29T06:11:49;102302.16;;;15.94;62.62
35419;BME280;21525;41.240;16.500;2023-12-29T06:14:15;102303.75;;;16.10;61.76
35419;BME280;21525;41.240;16.500;2023-12-29T06:16:41;102308.63;;;15.55;63.80
35419;BME280;21525;41.240;16.500;2023-12-29T06:19:08;102308.28;;;15.93;63.12
35419;BME280;21525;41.240;16.500;2023-12-29T06:21:43;102310.75;;;16.11;62.61
35419;BME280;21525;41.240;16.500;2023-12-29T06:24:11;102305.47;;;16.15;62.37
35419;BME280;21525;41.240;16.500;2023-12-29T06:26:37;102303.94;;;15.92;62.52
35419;BME280;21525;41.240;16.500;2023-12-29T06:29:09;102306.59;;;16.67;61.10
35419;BME280;21525;41.240;16.500;2023-12-29T06:31:35;102303.31;;;16.47;61.41
35419;BME280;21525;41.240;16.500;2023-12-29T06:34:01;102310.47;;;16.36;61.72
35419;BME280;21525;41.240;16.500;2023-12-29T06:36:26;102311.63;;;16.12;62.73
35419;BME280;21525;41.240;16.500;2023-12-29T06:38:52;102309.56;;;16.37;62.12
35419;BME280;21525;41.240;16.500;2023-12-29T06:41:19;102309.75;;;16.23;62.06
35419;BME280;21525;41.240;16.500;2023-12-29T06:43:44;102309.84;;;16.14;63.03
35419;BME280;21525;41.240;16.500;2023-12-29T06:46:11;102318.53;;;16.19;63.57
35419;BME280;21525;41.240;16.500;2023-12-29T06:48:39;102323.44;;;16.48;62.26
35419;BME280;21525;41.240;16.500;2023-12-29T06:51:05;102319.22;;;16.35;63.08
35419;BME280;21525;41.240;16.500;2023-12-29T06:53:31;102319.06;;;16.50;62.63
35419;BME280;21525;41.240;16.500;2023-12-29T06:55:56;102313.53;;;16.71;61.88
35419;BME280;21525;41.240;16.500;2023-12-29T06:58:22;102308.25;;;16.74;61.95
35419;BME280;21525;41.240;16.500;2023-12-29T07:00:49;102314.34;;;16.76;61.99
35419;BME280;21525;41.240;16.500;2023-12-29T07:03:15;102309.16;;;16.72;62.19
35419;BME280;21525;41.240;16.500;2023-12-29T07:05:41;102316.63;;;16.32;63.23
35419;BME280;21525;41.240;16.500;2023-12-29T07:08:07;102316.84;;;16.13;63.83
35419;BME280;21525;41.240;16.500;2023-12-29T07:10:33;102321.19;;;16.16;64.78
35419;BME280;21525;41.240;16.500;2023-12-29T07:12:58;102321.53;;;16.59;64.66
35419;BME280;21525;41.240;16.500;2023-12-29T07:15:24;102310.78;;;16.82;63.07
35419;BME280;21525;41.240;16.500;2023-12-29T07:17:50;102311.03;;;16.59;64.32
35419;BME280;21525;41.240;16.500;2023-12-29T07:20:16;102307.31;;;16.80;63.02
35419;BME280;21525;41.240;16.500;2023-12-29T07:22:42;102314.91;;;17.00;62.40
35419;BME280;21525;41.240;16.500;2023-12-29T07:25:08;102315.72;;;17.03;62.79
35419;BME280;21525;41.240;16.500;2023-12-29T07:27:34;102312.38;;;16.92;62.72
35419;BME280;21525;41.240;16.500;2023-12-29T07:30:00;102316.47;;;17.13;62.16
35419;BME280;21525;41.240;16.500;2023-12-29T07:32:26;102311.13;;;17.19;61.82
35419;BME280;21525;41.240;16.500;2023-12-29T07:34:52;102316.09;;;17.36;61.91
35419;BME280;21525;41.240;16.500;2023-12-29T07:37:17;102318.78;;;17.33;61.35
35419;BME280;21525;41.240;16.500;2023-12-29T07:39:44;102324.09;;;17.28;61.65
35419;BME280;21525;41.240;16.500;2023-12-29T07:42:12;102323.53;;;17.65;60.70
35419;BME280;21525;41.240;16.500;2023-12-29T07:44:39;102318.41;;;17.56;60.86
35419;BME280;21525;41.240;16.500;2023-12-29T07:47:05;102311.63;;;17.93;60.13
35419;BME280;21525;41.240;16.500;2023-12-29T07:49:30;102315.50;;;17.74;60.12
35419;BME280;21525;41.240;16.500;2023-12-29T07:51:56;102309.94;;;17.89;60.14
35419;BME280;21525;41.240;16.500;2023-12-29T07:54:24;102313.84;;;18.16;59.41
35419;BME280;21525;41.240;16.500;2023-12-29T07:56:50;102318.41;;;18.51;58.54
35419;BME280;21525;41.240;16.500;2023-12-29T07:59:16;102312.00;;;18.64;57.91
35419;BME280;21525;41.240;16.500;2023-12-29T08:01:42;102313.81;;;19.01;57.03
35419;BME280;21525;41.240;16.500;2023-12-29T08:04:07;102323.69;;;19.30;56.33
35419;BME280;21525;41.240;16.500;2023-12-29T08:06:33;102317.66;;;19.25;56.56
35419;BME280;21525;41.240;16.500;2023-12-29T08:08:59;102313.88;;;19.36;55.96
35419;BME280;21525;41.240;16.500;2023-12-29T08:11:25;102313.78;;;19.39;55.78
35419;BME280;21525;41.240;16.500;2023-12-29T08:13:50;102326.00;;;19.43;55.73
35419;BME280;21525;41.240;16.500;2023-12-29T08:16:16;102315.41;;;19.45;55.28
35419;BME280;21525;41.240;16.500;2023-12-29T08:18:46;102320.38;;;19.59;55.21
35419;BME280;21525;41.240;16.500;2023-12-29T08:21:17;102320.75;;;19.79;55.23
35419;BME280;21525;41.240;16.500;2023-12-29T08:23:44;102316.03;;;19.90;54.51
35419;BME280;21525;41.240;16.500;2023-12-29T08:26:10;102316.56;;;20.03;54.25
35419;BME280;21525;41.240;16.500;2023-12-29T08:28:35;102320.00;;;20.06;54.24
35419;BME280;21525;41.240;16.500;2023-12-29T08:31:02;102324.38;;;20.07;54.12
35419;BME280;21525;41.240;16.500;2023-12-29T08:33:27;102332.25;;;20.09;54.36
35419;BME280;21525;41.240;16.500;2023-12-29T08:35:53;102317.03;;;20.17;54.31
35419;BME280;21525;41.240;16.500;2023-12-29T08:38:19;102320.13;;;19.68;55.85
35419;BME280;21525;41.240;16.500;2023-12-29T08:40:44;102319.78;;;19.82;55.63
35419;BME280;21525;41.240;16.500;2023-12-29T08:43:10;102323.56;;;20.05;55.45
35419;BME280;21525;41.240;16.500;2023-12-29T08:45:36;102323.66;;;20.33;54.71
35419;BME280;21525;41.240;16.500;2023-12-29T08:48:04;102316.34;;;20.12;54.93
35419;BME280;21525;41.240;16.500;2023-12-29T08:50:29;102328.81;;;19.73;55.50
35419;BME280;21525;41.240;16.500;2023-12-29T08:52:55;102326.06;;;19.77;55.51
35419;BME280;21525;41.240;16.500;2023-12-29T08:55:21;102321.16;;;19.96;55.16
35419;BME280;21525;41.240;16.500;2023-12-29T08:57:47;102333.69;;;19.88;55.29
35419;BME280;21525;41.240;16.500;2023-12-29T09:00:13;102327.03;;;20.07;54.79
35419;BME280;21525;41.240;16.500;2023-12-29T09:02:38;102339.66;;;20.27;54.43
35419;BME280;21525;41.240;16.500;2023-12-29T09:05:05;102335.00;;;20.37;54.07
35419;BME280;21525;41.240;16.500;2023-12-29T09:07:32;102336.84;;;20.33;53.92
35419;BME280;21525;41.240;16.500;2023-12-29T09:09:58;102337.53;;;20.09;54.46
35419;BME280;21525;41.240;16.500;2023-12-29T09:12:24;102341.63;;;19.87;58.20
35419;BME280;21525;41.240;16.500;2023-12-29T09:14:50;102345.91;;;19.92;57.10
35419;BME280;21525;41.240;16.500;2023-12-29T09:17:17;102345.72;;;20.00;56.71
35419;BME280;21525;41.240;16.500;2023-12-29T09:19:43;102342.91;;;20.06;56.18
35419;BME280;21525;41.240;16.500;2023-12-29T09:22:08;102345.00;;;19.93;56.22
35419;BME280;21525;41.240;16.500;2023-12-29T09:24:34;102346.91;;;19.87;56.65
35419;BME280;21525;41.240;16.500;2023-12-29T09:27:00;102346.13;;;19.83;56.11
35419;BME280;21525;41.240;16.500;2023-12-29T09:29:25;102356.28;;;19.66;56.37
35419;BME280;21525;41.240;16.500;2023-12-29T09:31:51;102348.81;;;19.46;56.45
35419;BME280;21525;41.240;16.500;2023-12-29T09:34:17;102350.47;;;19.13;56.97
35419;BME280;21525;41.240;16.500;2023-12-29T09:36:43;102350.94;;;18.50;60.16
35419;BME280;21525;41.240;16.500;2023-12-29T09:39:09;102346.88;;;17.86;64.73
35419;BME280;21525;41.240;16.500;2023-12-29T09:41:39;102350.47;;;18.28;64.50
35419;BME280;21525;41.240;16.500;2023-12-29T09:44:13;102343.03;;;18.50;63.19
35419;BME280;21525;41.240;16.500;2023-12-29T09:46:41;102342.38;;;18.82;62.66
35419;BME280;21525;41.240;16.500;2023-12-29T09:49:08;102339.69;;;18.40;62.66
35419;BME280;21525;41.240;16.500;2023-12-29T09:51:38;102339.00;;;18.31;63.24
35419;BME280;21525;41.240;16.500;2023-12-29T09:54:06;102337.81;;;18.02;64.07
35419;BME280;21525;41.240;16.500;2023-12-29T09:56:34;102334.34;;;18.45;62.99
35419;BME280;21525;41.240;16.500;2023-12-29T09:59:01;102327.03;;;18.15;63.86
35419;BME280;21525;41.240;16.500;2023-12-29T10:01:28;102325.94;;;17.80;66.69
35419;BME280;21525;41.240;16.500;2023-12-29T10:03:55;102320.81;;;17.71;67.82
35419;BME280;21525;41.240;16.500;2023-12-29T10:06:25;102309.16;;;17.86;67.45
35419;BME280;21525;41.240;16.500;2023-12-29T10:08:51;102313.91;;;18.13;65.53
35419;BME280;21525;41.240;16.500;2023-12-29T10:11:21;102312.44;;;17.97;67.30
35419;BME280;21525;41.240;16.500;2023-12-29T10:13:50;102308.03;;;18.43;66.29
35419;BME280;21525;41.240;16.500;2023-12-29T10:16:35;102303.50;;;18.07;66.01
35419;BME280;21525;41.240;16.500;2023-12-29T10:19:21;102299.03;;;18.94;63.22
35419;BME280;21525;41.240;16.500;2023-12-29T10:21:52;102293.16;;;18.83;61.10
35419;BME280;21525;41.240;16.500;2023-12-29T10:24:21;102281.53;;;19.96;57.06
35419;BME280;21525;41.240;16.500;2023-12-29T10:26:49;102289.28;;;20.02;55.49
35419;BME280;21525;41.240;16.500;2023-12-29T10:29:16;102270.97;;;20.58;54.12
35419;BME280;21525;41.240;16.500;2023-12-29T10:31:44;102262.94;;;21.70;53.21
35419;BME280;21525;41.240;16.500;2023-12-29T10:34:23;102256.91;;;21.90;50.78
35419;BME280;21525;41.240;16.500;2023-12-29T10:37:00;102261.50;;;21.85;49.96
35419;BME280;21525;41.240;16.500;2023-12-29T10:39:29;102251.38;;;22.21;49.15
35419;BME280;21525;41.240;16.500;2023-12-29T10:42:05;102247.09;;;22.63;48.45
35419;BME280;21525;41.240;16.500;2023-12-29T10:44:33;102240.03;;;22.86;47.37
35419;BME280;21525;41.240;16.500;2023-12-29T10:47:07;102239.94;;;23.09;48.07
35419;BME280;21525;41.240;16.500;2023-12-29T10:49:33;102227.88;;;22.80;49.50
35419;BME280;21525;41.240;16.500;2023-12-29T10:51:59;102226.69;;;23.09;47.96
35419;BME280;21525;41.240;16.500;2023-12-29T10:54:25;102219.09;;;22.09;47.85
35419;BME280;21525;41.240;16.500;2023-12-29T10:57:01;102217.56;;;20.75;49.12
35419;BME280;21525;41.240;16.500;2023-12-29T10:59:28;102225.00;;;20.62;49.84
35419;BME280;21525;41.240;16.500;2023-12-29T11:01:54;102217.59;;;21.01;47.68
35419;BME280;21525;41.240;16.500;2023-12-29T11:04:23;102209.34;;;21.10;47.29
35419;BME280;21525;41.240;16.500;2023-12-29T11:06:49;102200.09;;;21.24;47.52
35419;BME280;21525;41.240;16.500;2023-12-29T11:09:29;102211.41;;;20.74;49.27
35419;BME280;21525;41.240;16.500;2023-12-29T11:11:58;102201.13;;;21.44;47.58
35419;BME280;21525;41.240;16.500;2023-12-29T11:14:25;102199.53;;;21.65;47.73
35419;BME280;21525;41.240;16.500;2023-12-29T11:16:52;102195.69;;;21.49;46.65
35419;BME280;21525;41.240;16.500;2023-12-29T11:19:18;102189.59;;;21.72;45.38
35419;BME280;21525;41.240;16.500;2023-12-29T11:21:44;102179.03;;;21.21;48.13
35419;BME280;21525;41.240;16.500;2023-12-29T11:24:10;102183.25;;;22.01;46.89
35419;BME280;21525;41.240;16.500;2023-12-29T11:26:36;102181.84;;;22.37;45.78
35419;BME280;21525;41.240;16.500;2023-12-29T11:29:03;102176.16;;;22.68;45.35
35419;BME280;21525;41.240;16.500;2023-12-29T11:31:31;102167.09;;;22.30;45.08
35419;BME280;21525;41.240;16.500;2023-12-29T11:34:01;102165.53;;;22.25;45.24
35419;BME280;21525;41.240;16.500;2023-12-29T11:36:33;102171.69;;;21.54;46.25
35419;BME280;21525;41.240;16.500;2023-12-29T11:44:26;102169.13;;;20.74;49.57
35419;BME280;21525;41.240;16.500;2023-12-29T11:46:53;102150.91;;;20.92;49.45
35419;BME280;21525;41.240;16.500;2023-12-29T11:49:19;102153.97;;;20.22;50.83
35419;BME280;21525;41.240;16.500;2023-12-29T11:51:49;102149.28;;;21.12;49.56
35419;BME280;21525;41.240;16.500;2023-12-29T11:54:23;102142.00;;;20.68;50.10
35419;BME280;21525;41.240;16.500;2023-12-29T11:56:49;102148.56;;;20.27;50.84
35419;BME280;21525;41.240;16.500;2023-12-29T11:59:15;102140.03;;;20.74;49.92
35419;BME280;21525;41.240;16.500;2023-12-29T12:01:42;102133.00;;;20.73;50.06
35419;BME280;21525;41.240;16.500;2023-12-29T12:04:43;102129.22;;;21.07;49.30
35419;BME280;21525;41.240;16.500;2023-12-29T12:07:55;102131.94;;;20.79;49.67
35419;BME280;21525;41.240;16.500;2023-12-29T12:12:47;102137.06;;;21.60;48.65
35419;BME280;21525;41.240;16.500;2023-12-29T12:17:52;102139.47;;;20.07;49.93
35419;BME280;21525;41.240;16.500;2023-12-29T12:20:18;102136.44;;;20.20;50.51
35419;BME280;21525;41.240;16.500;2023-12-29T12:22:44;102126.72;;;20.77;49.88
35419;BME280;21525;41.240;16.500;2023-12-29T12:25:12;102126.13;;;20.94;49.83
35419;BME280;21525;41.240;16.500;2023-12-29T12:27:38;102131.34;;;20.71;50.26
35419;BME280;21525;41.240;16.500;2023-12-29T12:30:06;102129.59;;;20.70;50.60
35419;BME280;21525;41.240;16.500;2023-12-29T12:32:35;102135.34;;;21.09;50.00
35419;BME280;21525;41.240;16.500;2023-12-29T12:35:01;102124.34;;;20.68;50.86
35419;BME280;21525;41.240;16.500;2023-12-29T12:37:29;102129.88;;;20.05;51.76
35419;BME280;21525;41.240;16.500;2023-12-29T12:39:55;102121.28;;;20.26;50.92
35419;BME280;21525;41.240;16.500;2023-12-29T12:42:22;102120.13;;;20.89;50.35
35419;BME280;21525;41.240;16.500;2023-12-29T12:44:54;102125.50;;;20.60;50.67
35419;BME280;21525;41.240;16.500;2023-12-29T12:47:27;102124.34;;;20.42;51.82
35419;BME280;21525;41.240;16.500;2023-12-29T12:49:53;102113.75;;;20.95;50.94
35419;BME280;21525;41.240;16.500;2023-12-29T12:52:19;102117.38;;;20.39;51.35
35419;BME280;21525;41.240;16.500;2023-12-29T12:54:46;102105.84;;;20.68;50.79